Rio Cuarto, Argentina
Current Conditions -  °F | °C
As of 8:00 AM on Monday 20 Oct 2014 (Local Time) from SAOC Reporting Station
Clear Clear  
Wind Chill: 64°   Ceiling: Unl
Heat Index: 64°   Visibility: 6mi
Dew Point: 37°   Wind: 16mph
Humidity: 37%   Direction: 340°NNW
Pressure: 30.09"   Gusts: NA
Location:  33.13°S, 64.35°W
Report Text: SAOC 201100Z 34014KT CAVOK 18/03 Q1019
Loading
Personal Weather Stations






























Interactive Weather Map
Tropical Storm Tracking
New forecast layout! Learn more

10-Day Weather Forecast

Advertisements
Track Severe Weather on mobile